createdAt,value
2019-01-14T00:00:01.505Z,3.2
2019-01-14T00:05:01.446Z,3.1
2019-01-14T00:10:01.318Z,3.4
2019-01-14T00:15:01.458Z,3.9
2019-01-14T00:20:01.328Z,4.2
2019-01-14T00:30:01.328Z,4.5
2019-01-14T00:35:01.344Z,4.4
2019-01-14T00:40:01.328Z,3.6
2019-01-14T00:45:01.344Z,3.4
2019-01-14T00:50:01.287Z,3.2
2019-01-14T00:55:01.411Z,2.9
2019-01-14T01:00:01.319Z,2.9
2019-01-14T01:05:01.371Z,3.0
2019-01-14T01:10:01.297Z,2.9
2019-01-14T01:15:01.356Z,2.7
2019-01-14T01:20:01.315Z,3.0
2019-01-14T01:25:01.439Z,3.1
2019-01-14T01:30:01.284Z,2.9
2019-01-14T01:35:01.415Z,3.5
2019-01-14T01:40:01.302Z,3.4
2019-01-14T01:45:01.378Z,3.1
2019-01-14T01:50:01.302Z,3.2
2019-01-14T01:55:01.321Z,3.3
2019-01-14T02:00:01.374Z,3.0
2019-01-14T02:05:01.312Z,3.0
2019-01-14T02:10:01.358Z,3.5
2019-01-14T02:15:01.366Z,3.3
2019-01-14T02:20:01.303Z,3.6
2019-01-14T02:25:01.438Z,3.6
2019-01-14T02:30:01.305Z,3.6
2019-01-14T02:35:01.306Z,2.8
2019-01-14T02:45:01.417Z,2.3
2019-01-14T02:50:01.341Z,2.4
2019-01-14T02:55:01.352Z,1.8
2019-01-14T03:00:01.278Z,1.8
2019-01-14T03:05:01.342Z,1.5
2019-01-14T03:10:01.297Z,1.4
2019-01-14T03:15:01.424Z,1.5
2019-01-14T03:20:01.328Z,1.3
2019-01-14T03:25:01.410Z,1.6
2019-01-14T03:30:01.288Z,1.9
2019-01-14T03:35:01.379Z,2.2
2019-01-14T03:40:01.288Z,2.3
2019-01-14T03:45:01.413Z,2.4
2019-01-14T03:50:06.283Z,2.5
2019-01-14T03:55:01.373Z,2.4
2019-01-14T04:00:01.302Z,2.2
2019-01-14T04:05:01.316Z,2.1
2019-01-14T04:10:01.314Z,2.0
2019-01-14T04:15:01.424Z,2.0
2019-01-14T04:25:01.363Z,2.2
2019-01-14T04:30:01.342Z,2.5
2019-01-14T04:35:01.344Z,2.6
2019-01-14T04:40:01.288Z,2.5
2019-01-14T04:45:01.279Z,3.0
2019-01-14T04:50:01.275Z,3.1
2019-01-14T04:55:01.488Z,3.0
2019-01-14T05:00:01.310Z,2.9
2019-01-14T05:05:01.555Z,3.0
2019-01-14T05:10:01.326Z,2.4
2019-01-14T05:15:01.285Z,2.1
2019-01-14T05:30:01.285Z,2.4
2019-01-14T05:35:01.462Z,2.5
2019-01-14T05:40:01.290Z,2.4
2019-01-14T05:45:01.365Z,2.2
2019-01-14T05:50:01.299Z,2.4
2019-01-14T05:55:01.349Z,2.5
2019-01-14T06:00:01.265Z,2.3
2019-01-14T06:06:01.404Z,2.2
2019-01-14T06:11:01.347Z,2.1
2019-01-14T06:16:01.279Z,1.8
2019-01-14T06:21:01.405Z,1.8
2019-01-14T06:26:01.281Z,1.8
2019-01-14T06:41:01.446Z,2.0
2019-01-14T06:46:01.318Z,1.8
2019-01-14T06:56:01.347Z,1.9
2019-01-14T07:06:01.349Z,2.0
2019-01-14T07:11:01.344Z,2.3
2019-01-14T07:21:01.328Z,2.1
2019-01-14T07:26:06.289Z,2.5
2019-01-14T07:31:01.404Z,2.6
2019-01-14T07:36:01.300Z,2.5
2019-01-14T07:41:01.698Z,3.1
2019-01-14T07:51:01.439Z,3.1
2019-01-14T08:01:01.418Z,2.7
2019-01-14T08:07:01.279Z,2.1
2019-01-14T08:12:01.278Z,1.7
2019-01-14T08:17:02.945Z,1.3
2019-01-14T08:22:01.350Z,1.2
2019-01-14T08:27:01.278Z,1.2
2019-01-14T08:32:01.340Z,2.3
2019-01-14T08:37:01.289Z,3.9
2019-01-14T08:42:01.410Z,3.9
2019-01-14T08:47:01.279Z,4.2
2019-01-14T08:52:01.348Z,4.2
2019-01-14T08:57:01.284Z,3.2
2019-01-14T09:02:01.346Z,1.9
2019-01-14T09:13:01.339Z,2.0
2019-01-14T09:28:01.350Z,1.9
2019-01-14T09:33:01.369Z,1.8
2019-01-14T09:38:01.317Z,1.7
2019-01-14T09:43:01.364Z,1.7
2019-01-14T09:48:01.286Z,1.8
2019-01-14T09:58:01.346Z,1.9
2019-01-14T10:03:01.301Z,2.1
2019-01-14T10:08:01.299Z,2.1
2019-01-14T10:13:01.353Z,1.9
2019-01-14T10:24:01.339Z,2.0
2019-01-14T10:29:01.276Z,1.8
2019-01-14T10:34:01.403Z,1.9
2019-01-14T10:39:06.288Z,2.1
2019-01-14T10:49:07.191Z,2.3
2019-01-14T10:54:01.353Z,2.3
2019-01-14T10:59:01.329Z,2.7
2019-01-14T11:04:01.381Z,2.7
2019-01-14T11:09:06.249Z,2.8
2019-01-14T11:19:01.302Z,3.2
2019-01-14T11:24:01.346Z,2.8
2019-01-14T11:29:01.285Z,3.1
2019-01-14T11:34:01.419Z,3.4
2019-01-14T11:39:05.401Z,3.6
2019-01-14T11:44:01.377Z,3.5
2019-01-14T11:49:01.315Z,3.1
2019-01-14T11:54:01.374Z,2.8
2019-01-14T11:59:01.275Z,2.5
2019-01-14T12:04:01.490Z,2.8
2019-01-14T12:14:06.279Z,2.8
2019-01-14T12:19:01.290Z,3.2
2019-01-14T12:24:03.529Z,3.4
2019-01-14T12:29:01.274Z,3.4
2019-01-14T12:34:01.358Z,3.9
2019-01-14T12:39:01.274Z,4.5
2019-01-14T12:44:01.483Z,5.2
2019-01-14T12:49:01.273Z,6.1
2019-01-14T12:54:01.369Z,6.0
2019-01-14T13:04:01.343Z,5.2
2019-01-14T13:09:01.280Z,4.6
2019-01-14T13:14:01.349Z,3.4
2019-01-14T13:19:01.340Z,3.2
2019-01-14T13:24:01.402Z,2.8
2019-01-14T13:29:01.281Z,2.9
2019-01-14T13:34:01.280Z,3.2
2019-01-14T13:39:01.280Z,2.9
2019-01-14T13:44:01.283Z,3.1
2019-01-14T13:49:01.284Z,3.3
2019-01-14T13:59:01.355Z,2.9
2019-01-14T14:09:01.417Z,2.5
2019-01-14T14:14:01.278Z,2.3
2019-01-14T14:24:01.347Z,2.3
2019-01-14T14:29:01.285Z,2.5
2019-01-14T14:34:01.304Z,2.7
2019-01-14T14:39:01.275Z,3.3
2019-01-14T14:44:01.289Z,3.1
2019-01-14T14:49:01.755Z,3.4
2019-01-14T14:54:01.350Z,4.0
2019-01-14T14:59:01.288Z,3.8
2019-01-14T15:04:01.415Z,3.6
2019-01-14T15:14:01.365Z,3.8
2019-01-14T15:19:01.290Z,3.3
2019-01-14T15:24:02.962Z,3.6
2019-01-14T15:29:01.277Z,3.6
2019-01-14T15:34:01.338Z,4.0
2019-01-14T15:39:01.282Z,3.9
2019-01-14T15:44:01.383Z,4.3
2019-01-14T15:49:01.288Z,4.0
2019-01-14T15:54:01.441Z,3.8
2019-01-14T15:59:01.266Z,3.5
2019-01-14T16:09:01.302Z,2.9
2019-01-14T16:19:06.368Z,3.5
2019-01-14T16:24:01.388Z,3.6
2019-01-14T16:29:01.282Z,3.5
2019-01-14T16:34:01.438Z,3.4
2019-01-14T16:39:01.304Z,3.4
2019-01-14T16:44:01.335Z,2.8
2019-01-14T16:49:01.307Z,2.9
2019-01-14T16:54:01.344Z,2.9
2019-01-14T17:04:01.349Z,2.8
2019-01-14T17:09:01.282Z,3.0
2019-01-14T17:14:01.339Z,3.1
2019-01-14T17:19:01.317Z,3.1
2019-01-14T17:25:01.396Z,3.3
2019-01-14T17:30:01.320Z,3.1
2019-01-14T17:35:02.382Z,2.9
2019-01-14T17:40:01.287Z,2.9
2019-01-14T17:45:01.352Z,3.4
2019-01-14T17:50:01.288Z,4.2
2019-01-14T17:55:01.405Z,4.3
2019-01-14T18:00:01.298Z,4.4
2019-01-14T18:05:02.215Z,4.0
2019-01-14T18:10:01.290Z,3.9
2019-01-14T18:15:01.362Z,2.9
2019-01-14T18:20:01.305Z,2.8
2019-01-14T18:30:01.363Z,3.1
2019-01-14T18:40:01.544Z,3.0
2019-01-14T18:45:01.353Z,2.8
2019-01-14T18:55:01.288Z,2.7
2019-01-14T19:00:07.841Z,2.5
2019-01-14T19:05:01.415Z,2.6
2019-01-14T19:10:01.296Z,2.7
2019-01-14T19:15:01.346Z,2.8
2019-01-14T19:26:01.338Z,2.9
2019-01-14T19:31:01.401Z,3.0
2019-01-14T19:36:01.271Z,2.9
2019-01-14T19:41:02.313Z,2.8
2019-01-14T19:51:01.349Z,2.8
2019-01-14T19:56:01.285Z,2.7
2019-01-14T20:01:01.411Z,2.9
2019-01-14T20:06:01.287Z,2.9
2019-01-14T20:11:01.288Z,3.1
2019-01-14T20:16:01.324Z,3.2
2019-01-14T20:21:01.377Z,3.4
2019-01-14T20:26:01.299Z,4.1
2019-01-14T20:31:01.406Z,4.4
2019-01-14T20:36:01.344Z,4.1
2019-01-14T20:41:06.414Z,4.2
2019-01-14T20:46:01.287Z,4.1
2019-01-14T20:51:01.338Z,3.4
2019-01-14T20:56:01.284Z,3.9
2019-01-14T21:01:01.289Z,4.3
2019-01-14T21:06:01.297Z,4.1
2019-01-14T21:11:01.381Z,4.3
2019-01-14T21:21:01.347Z,3.6
2019-01-14T21:26:01.333Z,3.3
2019-01-14T21:31:01.360Z,3.3
2019-01-14T21:36:01.285Z,3.2
2019-01-14T21:41:01.399Z,2.9
2019-01-14T21:46:01.285Z,3.3
2019-01-14T21:51:01.885Z,3.2
2019-01-14T21:56:01.327Z,3.3
2019-01-14T22:01:01.360Z,3.2
2019-01-14T22:11:06.348Z,3.1
2019-01-14T22:21:01.375Z,2.9
2019-01-14T22:26:01.315Z,2.6
2019-01-14T22:31:01.384Z,2.9
2019-01-14T22:36:01.312Z,2.9
2019-01-14T22:41:01.373Z,2.9
2019-01-14T22:46:01.309Z,3.0
2019-01-14T22:51:01.402Z,3.2
2019-01-14T23:01:03.380Z,3.3
2019-01-14T23:16:01.342Z,3.1
2019-01-14T23:21:01.276Z,2.9
2019-01-14T23:26:01.289Z,2.9
2019-01-14T23:31:01.342Z,3.2
2019-01-14T23:36:01.283Z,2.8
2019-01-14T23:46:01.406Z,2.4
2019-01-14T23:51:01.412Z,2.1
2019-01-14T23:56:01.287Z,1.7
